createdAt,value
2023-02-27T00:02:18.288Z,99967.85
2023-02-27T00:04:45.502Z,99969.84
2023-02-27T00:07:12.116Z,99975.67
2023-02-27T00:09:40.323Z,99976.67
2023-02-27T00:12:08.214Z,99977.90
2023-02-27T00:14:35.302Z,99974.67
2023-02-27T00:17:05.258Z,99978.29
2023-02-27T00:19:31.885Z,99977.86
2023-02-27T00:21:58.503Z,99977.21
2023-02-27T00:24:25.372Z,99981.86
2023-02-27T00:26:52.427Z,99978.83
2023-02-27T00:29:19.846Z,99976.18
2023-02-27T00:31:51.601Z,99980.21
2023-02-27T00:34:18.648Z,99979.98
2023-02-27T00:36:45.306Z,99980.13
2023-02-27T00:39:11.954Z,99988.11
2023-02-27T00:41:38.574Z,99988.56
2023-02-27T00:44:05.293Z,99989.16
2023-02-27T00:46:31.951Z,99991.98
2023-02-27T00:48:58.712Z,99990.69
2023-02-27T00:51:27.675Z,99992.92
2023-02-27T00:53:55.715Z,99991.56
2023-02-27T00:56:22.411Z,99988.84
2023-02-27T00:58:50.320Z,99986.13
2023-02-27T01:01:17.270Z,99987.35
2023-02-27T01:03:44.007Z,99984.82
2023-02-27T01:06:10.694Z,99985.09
2023-02-27T01:08:37.462Z,99986.57
2023-02-27T01:11:05.221Z,99985.64
2023-02-27T01:13:32.067Z,99981.61
2023-02-27T01:15:58.679Z,99977.58
2023-02-27T01:18:25.308Z,99980.75
2023-02-27T01:20:53.779Z,99980.50
2023-02-27T01:23:20.844Z,99977.63
2023-02-27T01:25:49.710Z,99981.80
2023-02-27T01:28:17.410Z,99975.63
2023-02-27T01:30:44.258Z,99975.67
2023-02-27T01:33:14.082Z,99978.06
2023-02-27T01:35:41.133Z,99982.75
2023-02-27T01:38:07.791Z,99992.49
2023-02-27T01:40:38.489Z,99993.68
2023-02-27T01:43:05.916Z,99996.65
2023-02-27T01:45:34.685Z,99997.05
2023-02-27T01:48:20.753Z,99999.07
2023-02-27T01:50:55.059Z,100000.52
2023-02-27T01:53:26.010Z,100000.40
2023-02-27T01:55:54.582Z,99996.02
2023-02-27T01:58:21.321Z,99999.05
2023-02-27T02:00:48.299Z,100000.89
2023-02-27T02:03:34.207Z,100003.80
2023-02-27T02:06:02.018Z,100002.34
2023-02-27T02:08:29.372Z,100004.88
2023-02-27T02:10:56.039Z,100002.67
2023-02-27T02:13:22.865Z,100006.98
2023-02-27T02:16:18.743Z,100005.61
2023-02-27T02:19:10.721Z,100003.35
2023-02-27T02:22:21.387Z,100006.51
2023-02-27T02:25:18.026Z,100007.29
2023-02-27T02:28:03.961Z,100003.62
2023-02-27T02:30:42.901Z,100005.84
2023-02-27T02:33:19.070Z,100008.17
2023-02-27T02:36:06.539Z,100014.14
2023-02-27T02:38:39.867Z,100013.59
2023-02-27T02:41:40.065Z,100020.43
2023-02-27T02:44:15.666Z,100026.05
2023-02-27T02:47:00.859Z,100025.59
2023-02-27T02:49:37.486Z,100024.80
2023-02-27T02:52:14.538Z,100026.06
2023-02-27T02:54:45.580Z,100031.11
2023-02-27T02:57:16.384Z,100032.42
2023-02-27T02:59:50.526Z,100035.11
2023-02-27T03:02:19.083Z,100048.04
2023-02-27T03:04:52.403Z,100045.02
2023-02-27T03:07:33.199Z,100048.56
2023-02-27T03:10:35.680Z,100050.65
2023-02-27T03:13:06.433Z,100051.46
2023-02-27T03:15:43.791Z,100061.52
2023-02-27T03:18:20.449Z,100061.05
2023-02-27T03:21:14.418Z,100061.16
2023-02-27T03:23:45.323Z,100065.96
2023-02-27T03:26:12.625Z,100071.05
2023-02-27T03:28:42.105Z,100069.59
2023-02-27T03:31:17.811Z,100073.73
2023-02-27T03:33:54.343Z,100071.17
2023-02-27T03:36:41.154Z,100070.70
2023-02-27T03:39:30.005Z,100076.88
2023-02-27T03:42:12.517Z,100079.21
2023-02-27T03:45:10.207Z,100086.98
2023-02-27T03:47:37.030Z,100088.47
2023-02-27T03:50:04.593Z,100085.48
2023-02-27T03:52:31.437Z,100091.76
2023-02-27T03:55:01.768Z,100091.31
2023-02-27T03:57:28.493Z,100098.27
2023-02-27T03:59:55.209Z,100098.48
2023-02-27T04:02:22.527Z,100101.09
2023-02-27T04:04:49.378Z,100107.13
2023-02-27T04:07:54.267Z,100113.55
2023-02-27T04:10:41.048Z,100114.27
2023-02-27T04:13:27.800Z,100110.66
2023-02-27T04:16:31.464Z,100116.56
2023-02-27T04:19:26.134Z,100121.95
2023-02-27T04:22:17.550Z,100126.13
2023-02-27T04:24:58.793Z,100122.84
2023-02-27T04:27:34.727Z,100125.09
2023-02-27T04:30:19.979Z,100120.45
2023-02-27T04:32:52.115Z,100122.27
2023-02-27T04:35:48.598Z,100127.64
2023-02-27T04:38:18.458Z,100128.30
2023-02-27T04:40:49.701Z,100126.73
2023-02-27T04:43:16.389Z,100129.33
2023-02-27T04:45:44.222Z,100131.64
2023-02-27T04:48:19.666Z,100130.19
2023-02-27T04:51:20.853Z,100135.30
2023-02-27T04:53:51.317Z,100137.55
2023-02-27T04:56:23.096Z,100137.05
2023-02-27T04:58:58.940Z,100134.58
2023-02-27T05:01:37.273Z,100139.74
2023-02-27T05:04:04.461Z,100141.25
2023-02-27T05:06:32.653Z,100147.41
2023-02-27T05:09:06.470Z,100144.80
2023-02-27T05:11:36.581Z,100146.93
2023-02-27T05:14:41.867Z,100150.84
2023-02-27T05:17:11.003Z,100142.45
2023-02-27T05:19:38.859Z,100149.34
2023-02-27T05:22:08.093Z,100150.09
2023-02-27T05:24:37.593Z,100149.05
2023-02-27T05:27:10.956Z,100155.77
2023-02-27T05:29:49.794Z,100153.42
2023-02-27T05:32:35.103Z,100152.49
2023-02-27T05:35:13.752Z,100155.14
2023-02-27T05:37:46.197Z,100153.96
2023-02-27T05:40:15.813Z,100165.00
2023-02-27T05:42:45.510Z,100168.79
2023-02-27T05:45:18.934Z,100180.31
2023-02-27T05:47:47.609Z,100180.31
2023-02-27T05:50:17.832Z,100183.14
2023-02-27T05:52:44.467Z,100186.11
2023-02-27T05:55:18.909Z,100193.13
2023-02-27T05:57:58.017Z,100197.68
2023-02-27T06:00:30.169Z,100194.58
2023-02-27T06:02:56.825Z,100197.97
2023-02-27T06:05:24.852Z,100200.08
2023-02-27T06:07:51.974Z,100200.33
2023-02-27T06:10:19.523Z,100201.73
2023-02-27T06:12:46.249Z,100203.92
2023-02-27T06:15:13.234Z,100211.39
2023-02-27T06:17:40.042Z,100211.36
2023-02-27T06:20:08.357Z,100211.25
2023-02-27T06:22:35.287Z,100216.18
2023-02-27T06:25:02.160Z,100217.20
2023-02-27T06:27:28.909Z,100219.95
2023-02-27T06:29:55.580Z,100216.73
2023-02-27T06:32:23.939Z,100217.77
2023-02-27T06:34:50.697Z,100215.42
2023-02-27T06:37:17.275Z,100220.84
2023-02-27T06:39:43.972Z,100216.61
2023-02-27T06:42:10.587Z,100217.17
2023-02-27T06:44:37.190Z,100220.55
2023-02-27T06:47:03.997Z,100223.49
2023-02-27T06:49:30.619Z,100227.50
2023-02-27T06:51:57.217Z,100226.96
2023-02-27T06:54:23.841Z,100230.67
2023-02-27T06:56:52.094Z,100236.23
2023-02-27T06:59:18.819Z,100235.48
2023-02-27T07:01:45.472Z,100234.92
2023-02-27T07:04:13.383Z,100241.58
2023-02-27T07:07:34.046Z,100244.30
2023-02-27T07:09:26.890Z,100247.14
2023-02-27T07:11:53.729Z,100247.75
2023-02-27T07:14:20.566Z,100250.61
2023-02-27T07:16:51.105Z,100252.55
2023-02-27T07:19:18.626Z,100257.10
2023-02-27T07:21:45.540Z,100258.43
2023-02-27T07:24:12.334Z,100257.63
2023-02-27T07:26:38.964Z,100259.81
2023-02-27T07:29:05.851Z,100255.41
2023-02-27T07:31:33.037Z,100259.81
2023-02-27T07:33:59.712Z,100254.94
2023-02-27T07:36:26.856Z,100258.35
2023-02-27T07:38:54.325Z,100258.08
2023-02-27T07:41:29.903Z,100260.49
2023-02-27T07:44:00.040Z,100261.31
2023-02-27T07:46:28.071Z,100265.33
2023-02-27T07:48:55.119Z,100269.07
2023-02-27T07:51:21.856Z,100274.42
2023-02-27T07:53:49.228Z,100277.59
2023-02-27T07:56:15.931Z,100278.36
2023-02-27T07:58:42.600Z,100287.56
2023-02-27T08:01:09.212Z,100283.85
2023-02-27T08:03:35.866Z,100287.05
2023-02-27T08:06:02.680Z,100286.45
2023-02-27T08:08:29.783Z,100290.77
2023-02-27T08:10:56.461Z,100289.77
2023-02-27T08:13:42.481Z,100292.89
2023-02-27T08:16:09.793Z,100297.95
2023-02-27T08:18:36.547Z,100295.73
2023-02-27T08:21:05.055Z,100294.30
2023-02-27T08:23:32.579Z,100296.84
2023-02-27T08:25:59.260Z,100296.28
2023-02-27T08:28:25.865Z,100304.45
2023-02-27T08:30:52.575Z,100301.20
2023-02-27T08:33:19.362Z,100306.67
2023-02-27T08:35:46.028Z,100308.64
2023-02-27T08:38:12.767Z,100308.76
2023-02-27T08:40:39.499Z,100312.02
2023-02-27T08:43:06.146Z,100314.83
2023-02-27T08:45:32.907Z,100316.54
2023-02-27T08:47:59.909Z,100317.69
2023-02-27T08:50:26.625Z,100320.98
2023-02-27T08:52:53.301Z,100321.07
2023-02-27T08:55:20.252Z,100328.00
2023-02-27T08:57:46.898Z,100330.61
2023-02-27T09:00:15.727Z,100335.70
2023-02-27T09:02:42.452Z,100335.27
2023-02-27T09:05:09.584Z,100338.55
2023-02-27T09:07:36.316Z,100342.66
2023-02-27T09:10:03.402Z,100339.20
2023-02-27T09:12:30.148Z,100341.84
2023-02-27T09:14:56.958Z,100341.10
2023-02-27T09:17:23.578Z,100348.85
2023-02-27T09:19:51.549Z,100343.45
2023-02-27T09:22:19.911Z,100343.89
2023-02-27T09:24:46.591Z,100340.98
2023-02-27T09:27:13.305Z,100342.01
2023-02-27T09:29:39.943Z,100340.56
2023-02-27T09:32:06.760Z,100339.70
2023-02-27T09:34:33.588Z,100338.75
2023-02-27T09:37:00.729Z,100339.34
2023-02-27T09:39:27.834Z,100341.13
2023-02-27T09:42:00.508Z,100345.29
2023-02-27T09:44:45.688Z,100344.75
2023-02-27T09:47:24.656Z,100346.77
2023-02-27T09:50:08.000Z,100347.73
2023-02-27T09:52:36.884Z,100352.44
2023-02-27T09:55:11.303Z,100353.52
2023-02-27T09:57:53.556Z,100361.89
2023-02-27T10:00:27.833Z,100359.13
2023-02-27T10:02:59.633Z,100358.55
2023-02-27T10:05:35.686Z,100367.27
2023-02-27T10:08:14.516Z,100368.36
2023-02-27T10:11:06.770Z,100371.91
2023-02-27T10:13:43.849Z,100372.17
2023-02-27T10:16:12.093Z,100379.25
2023-02-27T10:19:02.294Z,100382.14
2023-02-27T10:21:35.092Z,100382.36
2023-02-27T10:24:17.240Z,100384.54
2023-02-27T10:26:44.269Z,100387.85
2023-02-27T10:29:17.984Z,100385.04
2023-02-27T10:31:44.842Z,100387.87
2023-02-27T10:34:13.417Z,100387.70
2023-02-27T10:36:41.324Z,100387.30
2023-02-27T10:39:08.392Z,100392.84
2023-02-27T10:41:35.980Z,100386.44
2023-02-27T10:44:02.686Z,100390.80
2023-02-27T10:46:31.385Z,100392.91
2023-02-27T10:49:00.365Z,100391.29
2023-02-27T10:51:36.326Z,100394.21
2023-02-27T10:54:18.717Z,100395.55
2023-02-27T10:56:47.928Z,100396.27
2023-02-27T10:59:17.947Z,100396.70
2023-02-27T11:01:57.655Z,100396.25
2023-02-27T11:04:48.984Z,100399.25
2023-02-27T11:07:18.531Z,100402.13
2023-02-27T11:09:45.284Z,100396.16
2023-02-27T11:12:20.241Z,100401.98
2023-02-27T11:14:54.657Z,100404.45
2023-02-27T11:17:32.844Z,100399.86
2023-02-27T11:20:00.854Z,100400.98
2023-02-27T11:22:29.499Z,100400.13
2023-02-27T11:25:22.548Z,100398.77
2023-02-27T11:27:49.325Z,100396.30
2023-02-27T11:30:28.215Z,100394.90
2023-02-27T11:32:56.600Z,100387.20
2023-02-27T11:35:34.629Z,100387.88
2023-02-27T11:38:06.552Z,100385.60
2023-02-27T11:40:34.724Z,100383.20
2023-02-27T11:43:06.085Z,100380.96
2023-02-27T11:46:23.802Z,100377.52
2023-02-27T11:48:32.641Z,100372.33
2023-02-27T11:51:11.769Z,100365.77
2023-02-27T11:53:47.518Z,100366.54
2023-02-27T11:56:19.981Z,100367.16
2023-02-27T11:59:13.250Z,100368.63
2023-02-27T12:01:53.771Z,100367.84
2023-02-27T12:04:29.341Z,100371.43
2023-02-27T12:07:01.375Z,100373.35
2023-02-27T12:09:31.347Z,100372.28
2023-02-27T12:11:58.288Z,100379.79
2023-02-27T12:14:59.578Z,100381.80
2023-02-27T12:17:40.627Z,100383.33
2023-02-27T12:20:32.253Z,100385.91
2023-02-27T12:22:58.868Z,100382.64
2023-02-27T12:25:30.277Z,100375.17
2023-02-27T12:28:03.008Z,100375.15
2023-02-27T12:30:34.140Z,100378.80
2023-02-27T12:33:25.697Z,100380.14
2023-02-27T12:36:00.118Z,100381.46
2023-02-27T12:38:26.833Z,100384.23
2023-02-27T12:41:07.284Z,100388.30
2023-02-27T12:43:43.055Z,100390.61
2023-02-27T12:46:28.918Z,100393.46
2023-02-27T12:49:12.198Z,100393.09
2023-02-27T12:52:33.034Z,100397.89
2023-02-27T12:55:02.598Z,100405.31
2023-02-27T12:57:33.525Z,100399.34
2023-02-27T13:00:39.888Z,100396.95
2023-02-27T13:03:24.126Z,100400.17
2023-02-27T13:05:56.100Z,100401.54
2023-02-27T13:08:50.615Z,100401.53
2023-02-27T13:11:32.912Z,100397.91
2023-02-27T13:14:01.464Z,100396.56
2023-02-27T13:16:43.812Z,100397.73
2023-02-27T13:19:24.774Z,100405.42
2023-02-27T13:21:53.606Z,100404.80
2023-02-27T13:24:27.457Z,100406.34
2023-02-27T13:27:02.221Z,100409.35
2023-02-27T13:29:35.496Z,100413.80
2023-02-27T13:32:05.546Z,100413.98
2023-02-27T13:34:32.453Z,100416.45
2023-02-27T13:37:02.520Z,100420.59
2023-02-27T13:39:41.463Z,100424.15
2023-02-27T13:42:28.315Z,100425.48
2023-02-27T13:45:01.518Z,100428.75
2023-02-27T13:47:30.930Z,100427.25
2023-02-27T13:49:59.038Z,100432.39
2023-02-27T13:52:44.069Z,100427.77
2023-02-27T13:55:28.248Z,100426.69
2023-02-27T13:57:57.537Z,100430.04
2023-02-27T14:00:26.258Z,100427.15
2023-02-27T14:03:00.368Z,100428.08
2023-02-27T14:05:41.690Z,100431.53
2023-02-27T14:08:16.500Z,100427.19
2023-02-27T14:10:58.326Z,100426.20
2023-02-27T14:13:49.907Z,100432.17
2023-02-27T14:16:38.478Z,100428.53
2023-02-27T14:19:22.432Z,100434.36
2023-02-27T14:22:19.589Z,100437.45
2023-02-27T14:25:01.998Z,100440.06
2023-02-27T14:27:32.211Z,100438.81
2023-02-27T14:30:01.158Z,100439.95
2023-02-27T14:32:35.126Z,100443.98
2023-02-27T14:35:01.853Z,100446.84
2023-02-27T14:37:28.658Z,100447.45
2023-02-27T14:39:55.845Z,100450.30
2023-02-27T14:42:58.150Z,100451.02
2023-02-27T14:45:25.284Z,100458.48
2023-02-27T14:47:52.096Z,100458.70
2023-02-27T14:50:24.322Z,100459.73
2023-02-27T14:52:50.993Z,100463.23
2023-02-27T14:55:18.889Z,100464.68
2023-02-27T14:58:10.085Z,100467.99
2023-02-27T15:00:38.140Z,100473.02
2023-02-27T15:03:29.189Z,100473.68
2023-02-27T15:05:59.405Z,100472.45
2023-02-27T15:08:32.545Z,100472.75
2023-02-27T15:10:59.292Z,100475.14
2023-02-27T15:13:28.039Z,100477.20
2023-02-27T15:16:23.823Z,100478.67
2023-02-27T15:18:52.439Z,100481.25
2023-02-27T15:21:21.403Z,100484.30
2023-02-27T15:23:59.340Z,100486.54
2023-02-27T15:26:26.256Z,100487.50
2023-02-27T15:28:53.374Z,100489.50
2023-02-27T15:31:22.863Z,100492.91
2023-02-27T15:33:50.257Z,100495.84
2023-02-27T15:36:20.000Z,100498.63
2023-02-27T15:38:46.698Z,100499.25
2023-02-27T15:41:13.816Z,100500.63
2023-02-27T15:43:40.425Z,100501.02
2023-02-27T15:46:07.106Z,100503.31
2023-02-27T15:48:34.020Z,100510.66
2023-02-27T15:51:02.681Z,100516.71
2023-02-27T15:53:30.779Z,100518.44
2023-02-27T15:55:58.951Z,100524.00
2023-02-27T15:58:36.612Z,100527.57
2023-02-27T16:01:08.488Z,100532.45
2023-02-27T16:03:43.104Z,100537.86
2023-02-27T16:06:12.594Z,100540.79
2023-02-27T16:08:43.471Z,100540.64
2023-02-27T16:11:18.984Z,100545.98
2023-02-27T16:13:45.674Z,100546.54
2023-02-27T16:16:21.458Z,100548.39
2023-02-27T16:18:50.029Z,100550.39
2023-02-27T16:21:18.477Z,100550.83
2023-02-27T16:23:45.417Z,100554.74
2023-02-27T16:26:17.590Z,100549.95
2023-02-27T16:28:52.310Z,100555.06
2023-02-27T16:31:29.330Z,100558.64
2023-02-27T16:33:58.305Z,100564.36
2023-02-27T16:36:27.104Z,100566.98
2023-02-27T16:38:54.120Z,100574.98
2023-02-27T16:41:21.991Z,100582.65
2023-02-27T16:43:49.022Z,100581.96
2023-02-27T16:46:20.423Z,100582.40
2023-02-27T16:48:54.034Z,100585.34
2023-02-27T16:51:24.246Z,100590.27
2023-02-27T16:53:51.878Z,100593.17
2023-02-27T16:56:23.717Z,100594.05
2023-02-27T16:58:53.157Z,100597.27
2023-02-27T17:01:19.998Z,100603.30
2023-02-27T17:03:47.038Z,100609.39
2023-02-27T17:06:15.712Z,100607.19
2023-02-27T17:08:44.163Z,100609.02
2023-02-27T17:11:10.937Z,100612.64
2023-02-27T17:13:37.971Z,100616.40
2023-02-27T17:16:05.329Z,100620.42
2023-02-27T17:18:32.460Z,100616.39
2023-02-27T17:21:03.126Z,100620.48
2023-02-27T17:23:30.133Z,100622.14
2023-02-27T17:25:57.013Z,100618.54
2023-02-27T17:28:23.952Z,100622.78
2023-02-27T17:30:50.670Z,100620.02
2023-02-27T17:33:17.549Z,100621.55
2023-02-27T17:35:44.161Z,100624.84
2023-02-27T17:38:10.960Z,100626.44
2023-02-27T17:40:39.361Z,100625.90
2023-02-27T17:43:06.185Z,100630.31
2023-02-27T17:45:33.008Z,100628.80
2023-02-27T17:47:59.728Z,100632.49
2023-02-27T17:50:26.574Z,100632.33
2023-02-27T17:52:53.205Z,100634.13
2023-02-27T17:55:19.951Z,100627.85
2023-02-27T17:57:46.607Z,100628.19
2023-02-27T18:00:15.207Z,100632.12
2023-02-27T18:02:43.806Z,100627.57
2023-02-27T18:05:10.667Z,100627.40
2023-02-27T18:07:37.437Z,100629.85
2023-02-27T18:10:05.534Z,100631.92
2023-02-27T18:12:32.256Z,100635.08
2023-02-27T18:14:58.988Z,100633.16
2023-02-27T18:17:25.919Z,100634.28
2023-02-27T18:19:52.786Z,100636.48
2023-02-27T18:22:21.789Z,100635.25
2023-02-27T18:24:49.231Z,100635.80
2023-02-27T18:27:15.876Z,100637.39
2023-02-27T18:29:43.748Z,100640.59
2023-02-27T18:32:10.730Z,100643.44
2023-02-27T18:34:39.697Z,100643.73
2023-02-27T18:37:06.692Z,100640.21
2023-02-27T18:39:33.465Z,100641.63
2023-02-27T18:42:00.146Z,100646.96
2023-02-27T18:44:26.844Z,100648.59
2023-02-27T18:46:53.581Z,100651.98
2023-02-27T18:49:20.359Z,100649.13
2023-02-27T18:51:47.164Z,100651.41
2023-02-27T18:54:14.022Z,100651.11
2023-02-27T18:56:40.836Z,100649.14
2023-02-27T18:59:07.852Z,100650.35
2023-02-27T19:01:36.899Z,100650.35
2023-02-27T19:04:05.036Z,100654.89
2023-02-27T19:06:37.034Z,100662.45
2023-02-27T19:09:05.413Z,100661.98
2023-02-27T19:11:33.562Z,100664.16
2023-02-27T19:14:04.852Z,100669.23
2023-02-27T19:16:32.363Z,100673.25
2023-02-27T19:19:00.111Z,100670.71
2023-02-27T19:21:27.701Z,100668.56
2023-02-27T19:23:54.462Z,100672.24
2023-02-27T19:26:21.425Z,100678.13
2023-02-27T19:28:53.784Z,100676.91
2023-02-27T19:31:21.222Z,100675.20
2023-02-27T19:33:47.961Z,100675.77
2023-02-27T19:36:15.894Z,100676.23
2023-02-27T19:38:42.585Z,100672.38
2023-02-27T19:41:11.026Z,100675.02
2023-02-27T19:43:38.656Z,100683.09
2023-02-27T19:46:11.159Z,100682.08
2023-02-27T19:48:38.469Z,100682.80
2023-02-27T19:51:05.862Z,100687.58
2023-02-27T19:53:33.995Z,100689.26
2023-02-27T19:56:01.525Z,100688.98
2023-02-27T19:58:29.213Z,100692.63
2023-02-27T20:00:55.981Z,100694.90
2023-02-27T20:03:25.937Z,100700.73
2023-02-27T20:05:52.599Z,100699.79
2023-02-27T20:08:19.246Z,100700.16
2023-02-27T20:10:57.393Z,100702.11
2023-02-27T20:13:24.388Z,100702.27
2023-02-27T20:15:58.586Z,100704.53
2023-02-27T20:18:27.605Z,100705.98
2023-02-27T20:21:07.842Z,100705.73
2023-02-27T20:23:36.142Z,100712.31
2023-02-27T20:26:26.598Z,100709.61
2023-02-27T20:28:54.813Z,100713.20
2023-02-27T20:31:24.435Z,100712.67
2023-02-27T20:33:51.619Z,100708.63
2023-02-27T20:36:18.217Z,100714.17
2023-02-27T20:38:44.815Z,100711.77
2023-02-27T20:41:13.566Z,100715.81
2023-02-27T20:43:43.037Z,100717.11
2023-02-27T20:46:11.934Z,100720.31
2023-02-27T20:48:38.880Z,100722.25
2023-02-27T20:51:11.332Z,100720.32
2023-02-27T20:53:39.451Z,100722.70
2023-02-27T20:56:07.810Z,100721.38
2023-02-27T20:58:34.585Z,100727.52
2023-02-27T21:01:09.871Z,100732.29
2023-02-27T21:03:40.170Z,100735.45
2023-02-27T21:06:08.168Z,100733.15
2023-02-27T21:08:42.913Z,100737.23
2023-02-27T21:11:10.506Z,100736.69
2023-02-27T21:13:37.522Z,100739.73
2023-02-27T21:16:07.577Z,100742.96
2023-02-27T21:18:34.411Z,100740.92
2023-02-27T21:21:05.655Z,100743.37
2023-02-27T21:23:32.762Z,100742.23
2023-02-27T21:25:59.420Z,100743.06
2023-02-27T21:28:26.269Z,100744.09
2023-02-27T21:30:55.808Z,100740.61
2023-02-27T21:33:22.487Z,100739.24
2023-02-27T21:35:49.279Z,100743.02
2023-02-27T21:38:16.610Z,100738.75
2023-02-27T21:40:43.280Z,100738.48
2023-02-27T21:43:10.072Z,100746.93
2023-02-27T21:45:41.534Z,100749.69
2023-02-27T21:48:08.580Z,100751.13
2023-02-27T21:50:36.021Z,100751.04
2023-02-27T21:53:02.676Z,100752.02
2023-02-27T21:55:29.442Z,100755.57
2023-02-27T21:57:58.819Z,100753.78
2023-02-27T22:00:28.617Z,100754.02
2023-02-27T22:02:55.246Z,100753.27
2023-02-27T22:05:22.317Z,100752.55
2023-02-27T22:07:49.264Z,100756.22
2023-02-27T22:10:16.104Z,100759.29
2023-02-27T22:12:42.854Z,100759.30
2023-02-27T22:15:10.604Z,100762.80
2023-02-27T22:17:37.360Z,100765.61
2023-02-27T22:20:06.977Z,100767.09
2023-02-27T22:22:33.673Z,100768.45
2023-02-27T22:25:00.442Z,100764.66
2023-02-27T22:27:27.386Z,100765.92
2023-02-27T22:29:54.328Z,100767.30
2023-02-27T22:32:21.137Z,100763.13
2023-02-27T22:34:47.802Z,100760.40
2023-02-27T22:37:16.216Z,100765.55
2023-02-27T22:39:42.993Z,100769.06
2023-02-27T22:42:09.762Z,100775.13
2023-02-27T22:44:36.519Z,100777.52
2023-02-27T22:47:03.140Z,100782.28
2023-02-27T22:49:29.891Z,100782.72
2023-02-27T22:51:56.497Z,100786.29
2023-02-27T22:54:23.264Z,100786.95
2023-02-27T22:56:53.289Z,100789.59
2023-02-27T22:59:20.444Z,100790.41
2023-02-27T23:01:48.800Z,100788.65
2023-02-27T23:04:17.302Z,100795.90
2023-02-27T23:06:44.328Z,100795.87
2023-02-27T23:09:12.523Z,100794.77
2023-02-27T23:11:39.209Z,100796.48
2023-02-27T23:14:05.939Z,100799.23
2023-02-27T23:16:32.653Z,100800.20
2023-02-27T23:18:59.813Z,100804.66
2023-02-27T23:21:29.713Z,100807.12
2023-02-27T23:23:58.109Z,100810.17
2023-02-27T23:26:28.764Z,100809.58
2023-02-27T23:28:56.266Z,100811.42
2023-02-27T23:31:23.231Z,100811.71
2023-02-27T23:33:50.380Z,100809.73
2023-02-27T23:36:16.962Z,100808.98
2023-02-27T23:38:46.975Z,100811.67
2023-02-27T23:41:16.841Z,100805.81
2023-02-27T23:43:47.270Z,100808.05
2023-02-27T23:46:15.399Z,100806.08
2023-02-27T23:48:42.488Z,100806.19
2023-02-27T23:51:09.543Z,100804.50
2023-02-27T23:53:37.106Z,100806.48
2023-02-27T23:56:23.535Z,100809.65
2023-02-27T23:59:00.808Z,100810.36
